Date,TemperatureHighF,TemperatureAvgF,TemperatureLowF,DewpointHighF,DewpointAvgF,DewpointLowF,HumidityHigh,HumidityAvg,HumidityLow,PressureMaxIn,PressureMinIn,WindSpeedMaxMPH,WindSpeedAvgMPH,GustSpeedMaxMPH,PrecipitationSumIn
2013-1-1,73.0,70.2,68.0,70.0,67.0,65.0,92,89,83,30.11,30.01,23,11,30,0.28
2013-1-2,72.0,69.9,69.0,69.0,67.1,65.0,94,90,86,30.07,29.97,22,10,28,0.40
2013-1-3,74.0,69.7,68.0,69.0,66.8,64.0,95,90,82,30.08,29.98,30,11,32,0.75
2013-1-4,76.0,71.4,70.0,68.0,65.9,64.0,87,83,77,30.12,30.02,25,12,43,0.03
2013-1-5,74.0,71.1,69.0,68.0,66.5,65.0,90,85,79,30.14,30.05,30,14,39,0.09
2013-1-6,77.0,72.7,70.0,69.0,66.6,65.0,87,81,72,30.13,30.00,27,12,39,0.01
2013-1-7,78.0,72.7,70.0,69.0,66.9,65.0,87,82,73,30.08,29.96,24,11,31,0.00
2013-1-8,78.0,71.6,68.0,69.0,66.5,65.0,91,84,74,30.01,29.89,22,10,26,0.12
2013-1-9,78.0,72.3,69.0,69.0,67.4,66.0,91,85,74,30.00,29.90,22,10,30,0.11
2013-1-10,83.0,73.2,70.0,70.0,66.1,64.0,86,79,66,29.99,29.91,16,8,29,0.00
2013-1-11,77.0,72.1,69.0,68.0,66.2,64.0,89,82,71,29.97,29.86,17,8,32,0.00
2013-1-12,79.0,73.2,70.0,71.0,68.2,66.0,90,84,73,29.96,29.87,13,4,19,0.01
2013-1-13,82.0,73.9,69.0,70.0,68.0,66.0,92,82,65,29.97,29.91,9,2,9,0.00
2013-1-14,77.0,71.4,68.0,72.0,68.3,66.0,95,90,78,29.96,29.85,22,6,34,0.27
2013-1-15,77.0,70.2,67.0,68.0,64.0,57.0,93,81,67,29.94,29.85,18,5,18,0.01
2013-1-16,79.0,70.5,66.0,66.0,60.3,53.0,80,70,59,29.94,29.83,18,4,21,0.00
2013-1-17,75.0,69.1,66.0,65.0,62.0,60.0,86,78,72,29.91,29.81,16,4,18,0.01
2013-1-18,78.0,70.4,67.0,65.0,61.1,55.0,82,73,57,29.94,29.82,21,6,34,0.00
2013-1-19,75.0,69.2,66.0,61.0,56.5,54.0,72,64,55,30.02,29.90,20,7,32,0.00
2013-1-20,75.0,69.7,67.0,60.0,58.5,56.0,74,68,57,30.06,29.96,25,10,31,0.00
2013-1-21,77.0,70.8,68.0,64.0,61.2,58.0,80,72,62,30.12,30.02,24,10,27,0.00
2013-1-22,78.0,72.0,69.0,68.0,64.0,61.0,83,76,65,30.13,30.03,21,8,25,0.00
2013-1-23,78.0,71.5,68.0,69.0,64.9,60.0,90,80,71,30.07,29.99,18,6,22,0.10
2013-1-24,72.0,69.4,67.0,70.0,66.7,65.0,94,91,87,30.06,29.99,11,3,17,0.49
2013-1-25,78.0,72.0,69.0,70.0,66.5,64.0,88,83,72,30.06,29.97,10,3,13,0.01
2013-1-26,74.0,71.2,68.0,68.0,65.2,63.0,85,81,75,30.02,29.92,12,3,18,0.00
2013-1-27,76.0,72.3,64.0,70.0,66.9,61.0,91,83,78,29.97,29.86,26,8,33,0.47
2013-1-28,75.0,68.6,64.0,70.0,65.3,62.0,94,89,79,29.97,29.88,20,4,25,1.24
2013-1-29,78.0,71.5,68.0,69.0,66.3,65.0,91,84,71,30.02,29.91,10,2,18,0.15
2013-1-30,80.0,72.5,68.0,70.0,66.4,64.0,88,82,68,30.06,29.98,12,4,15,0.05
2013-1-31,76.0,71.9,70.0,69.0,66.5,65.0,88,83,77,30.80,30.02,18,8,25,0.00
2013-2-1,77.0,71.8,68.0,65.0,63.1,60.0,84,74,62,30.12,30.04,22,10,30,0.00
2013-2-2,78.0,72.3,69.0,65.0,63.0,61.0,82,73,60,30.15,30.05,22,9,25,0.00
2013-2-3,77.0,70.4,67.0,63.0,60.6,58.0,80,71,61,30.17,30.08,22,9,30,0.00
2013-2-4,76.0,71.2,69.0,66.0,61.8,58.0,80,72,65,30.13,30.03,29,13,32,0.00
2013-2-5,78.0,71.4,68.0,65.0,62.3,59.0,79,74,61,30.09,30.01,22,8,26,0.00
2013-2-6,77.0,70.8,68.0,69.0,65.5,62.0,89,83,74,30.09,30.01,20,8,25,0.12
2013-2-7,79.0,72.5,70.0,70.0,67.2,66.0,88,84,73,30.12,30.02,16,7,22,0.01
2013-2-8,80.0,73.0,69.0,69.0,66.4,64.0,86,80,68,30.12,30.03,11,5,19,0.00
2013-2-9,79.0,72.2,69.0,68.0,65.6,63.0,88,80,67,30.14,30.04,17,7,25,0.00
2013-2-10,77.0,72.0,69.0,70.0,65.7,63.0,87,81,73,30.19,30.07,17,9,28,0.04
2013-2-11,74.0,69.9,68.0,68.0,65.0,62.0,91,84,79,30.20,30.12,16,10,31,0.22
2013-2-12,75.0,69.6,67.0,65.0,61.3,57.0,84,75,68,30.19,30.09,17,9,30,0.03
2013-2-13,76.0,70.1,67.0,63.0,59.2,56.0,75,68,60,30.14,30.01,18,8,27,0.00
2013-2-14,76.0,70.4,67.0,64.0,61.1,57.0,79,73,64,30.10,30.00,15,8,23,0.00
2013-2-15,79.0,72.3,68.0,68.0,63.9,60.0,81,75,62,30.11,30.00,17,9,26,0.00
2013-2-16,79.0,72.0,69.0,65.0,62.9,59.0,83,73,60,30.13,30.05,26,12,39,0.00
2013-2-17,78.0,71.1,68.0,64.0,62.0,60.0,82,73,59,30.17,30.05,24,12,40,0.00
2013-2-18,78.0,71.6,68.0,65.0,61.6,59.0,83,71,58,30.15,30.06,29,12,34,0.04
2013-2-19,77.0,70.2,66.0,65.0,62.2,57.0,89,76,63,30.15,30.04,25,11,30,0.19
2013-2-20,78.0,71.7,68.0,67.0,64.2,62.0,87,77,64,30.16,30.05,24,11,32,0.02
2013-2-21,75.0,70.3,68.0,68.0,65.3,62.0,91,84,74,30.14,30.08,24,10,32,0.11
2013-2-22,77.0,70.6,68.0,69.0,66.1,64.0,91,86,72,30.13,30.04,22,10,36,0.24
2013-2-23,78.0,71.5,69.0,68.0,65.3,63.0,87,81,69,30.13,30.05,21,10,31,0.10
2013-2-24,78.0,71.2,69.0,67.0,63.6,61.0,84,77,64,30.12,30.02,26,10,32,0.03
2013-2-25,77.0,71.0,68.0,67.0,63.8,61.0,84,78,67,30.15,30.05,22,10,34,0.01
2013-2-26,78.0,72.0,69.0,66.0,64.0,62.0,84,76,63,30.16,30.08,22,10,30,0.00
2013-2-27,79.0,72.0,68.0,65.0,61.6,58.0,80,70,54,30.18,30.09,23,11,30,0.00
2013-2-28,79.0,71.9,69.0,65.0,61.4,58.0,79,70,51,30.19,30.10,22,11,31,0.00
2013-3-1,78.0,71.4,68.0,63.0,60.4,55.0,77,68,54,30.17,30.07,23,11,29,0.00
2013-3-2,79.0,71.7,68.0,62.0,60.3,58.0,80,68,50,30.19,30.07,23,11,34,0.00
2013-3-3,78.0,71.6,68.0,62.0,58.8,55.0,76,65,50,30.18,30.10,23,10,34,0.00
2013-3-4,77.0,71.4,68.0,63.0,59.2,55.0,75,66,55,30.18,30.10,18,10,27,0.00
2013-3-5,79.0,71.8,68.0,64.0,59.8,55.0,81,66,52,30.14,30.06,18,9,25,0.00
2013-3-6,80.0,71.7,68.0,65.0,63.6,62.0,85,76,61,30.14,30.05,17,7,20,0.00
2013-3-7,82.0,72.8,68.0,67.0,64.6,63.0,87,76,56,30.10,29.98,10,4,14,0.00
2013-3-8,80.0,72.1,67.0,67.0,64.0,53.0,88,77,44,30.03,29.88,13,4,19,0.00
2013-3-9,78.0,72.5,67.0,71.0,67.7,63.0,91,85,75,29.94,29.85,20,8,24,0.34
2013-3-10,72.0,67.2,64.0,68.0,64.9,62.0,95,92,86,30.01,29.86,21,7,28,1.41
2013-3-11,79.0,70.1,64.0,68.0,63.9,61.0,94,81,65,30.06,29.95,12,4,14,0.28
2013-3-12,74.0,70.1,68.0,67.0,62.6,59.0,84,77,68,30.07,29.97,13,5,18,0.01
2013-3-13,77.0,70.4,66.0,64.0,61.3,59.0,82,73,61,30.09,29.99,13,5,19,0.01
2013-3-14,78.0,70.5,67.0,66.0,63.4,61.0,86,79,64,30.07,29.96,8,2,10,0.00
2013-3-15,76.0,70.2,66.0,64.0,60.4,58.0,81,72,60,29.99,29.88,22,7,26,0.00
2013-3-16,74.0,68.7,66.0,62.0,57.3,54.0,82,68,55,30.00,29.89,21,7,27,0.00
2013-3-17,76.0,68.1,64.0,59.0,57.7,56.0,82,70,54,30.03,29.93,17,6,23,0.00
2013-3-18,76.0,68.8,64.0,63.0,59.5,57.0,81,73,60,30.03,29.93,16,4,17,0.00
2013-3-19,79.0,71.6,66.0,66.0,62.2,59.0,82,73,58,30.01,29.93,12,3,15,0.00
2013-3-20,79.0,72.8,68.0,70.0,65.7,62.0,87,79,64,30.06,29.94,9,2,14,0.00
2013-3-21,81.0,74.4,70.0,70.0,67.4,64.0,85,79,65,30.06,29.96,13,4,18,0.00
2013-3-22,78.0,72.7,68.0,70.0,67.9,65.0,92,85,73,30.02,29.93,22,8,28,0.23
2013-3-23,73.0,69.4,66.0,68.0,65.3,63.0,91,87,79,30.03,29.92,19,9,26,0.07
2013-3-24,69.0,68.3,67.0,68.0,66.2,64.0,95,93,89,30.04,29.93,19,7,21,0.88
2013-3-25,80.0,72.3,68.0,72.0,68.0,66.0,94,87,74,31.95,29.94,10,5,16,0.01
2013-3-26,80.0,72.7,69.0,70.0,67.3,66.0,90,83,70,30.04,29.94,11,6,15,0.00
2013-3-27,77.0,71.1,68.0,70.0,66.8,64.0,91,86,77,30.04,29.93,12,6,19,0.01
2013-3-28,79.0,71.8,68.0,69.0,65.9,64.0,89,82,70,30.05,29.96,16,8,24,0.01
2013-3-29,76.0,70.8,68.0,68.0,65.3,63.0,92,83,73,30.06,29.98,19,7,23,0.17
2013-3-30,74.0,70.0,67.0,68.0,63.7,-99.9,91,84,73,30.78,29.97,19,6,26,0.15
2013-3-31,75.0,68.4,66.0,61.0,57.3,53.0,80,68,53,30.73,29.99,22,9,30,0.01
2013-4-1,73.0,67.0,65.0,60.0,56.6,53.0,81,69,59,30.01,29.92,18,7,23,0.02
2013-4-2,76.0,68.7,65.0,59.0,56.8,54.0,76,66,51,30.09,29.96,16,6,22,0.02
2013-4-3,79.0,70.9,65.0,65.0,61.3,58.0,79,72,59,30.08,29.99,16,5,17,0.00
2013-4-4,81.0,73.1,68.0,69.0,65.2,62.0,87,76,63,30.09,29.98,10,5,16,0.00
2013-4-5,80.0,73.6,69.0,69.0,66.5,64.0,87,79,65,30.14,30.01,15,7,21,0.00
2013-4-6,86.0,75.4,72.0,72.0,69.7,68.0,90,83,63,30.16,30.06,22,7,23,0.00
2013-4-7,82.0,74.3,71.0,72.0,69.2,67.0,89,84,71,30.16,30.07,14,6,24,0.00
2013-4-8,81.0,74.3,70.0,69.0,67.7,66.0,89,80,65,30.11,29.98,11,6,19,0.00
2013-4-9,84.0,74.9,70.0,71.0,67.6,65.0,87,78,61,30.08,29.98,15,6,21,0.00
2013-4-10,84.0,74.7,70.0,71.0,68.4,67.0,90,81,64,30.06,29.97,16,7,24,0.00
2013-4-11,84.0,75.4,70.0,72.0,68.5,66.0,89,80,62,30.04,29.94,12,3,17,0.00
2013-4-12,83.0,75.1,72.0,71.0,68.5,67.0,88,80,60,29.98,29.90,10,3,13,0.00
2013-4-13,79.0,74.0,71.0,72.0,69.5,67.0,92,86,72,29.96,29.84,15,4,21,0.05
2013-4-14,79.0,72.9,69.0,72.0,69.4,67.0,94,89,77,29.96,29.86,18,7,23,0.48
2013-4-15,78.0,72.6,69.0,72.0,68.6,66.0,95,87,74,30.04,29.91,11,2,13,0.41
2013-4-16,83.0,74.7,69.0,71.0,68.4,66.0,90,81,64,30.11,29.98,11,3,17,0.02
2013-4-17,82.0,74.8,71.0,72.0,68.8,66.0,89,82,71,30.16,30.04,16,7,22,0.00
2013-4-18,82.0,74.4,71.0,71.0,67.7,66.0,86,80,68,30.14,30.07,22,8,25,0.00
2013-4-19,80.0,73.7,71.0,71.0,68.2,66.0,89,83,73,30.12,30.02,17,7,24,0.00
2013-4-20,83.0,75.5,71.0,70.0,67.6,66.0,87,77,63,30.09,30.00,10,2,17,0.00
2013-4-21,81.0,74.2,71.0,71.0,68.2,65.0,91,82,70,30.05,29.96,19,5,19,0.20
2013-4-22,81.0,74.6,72.0,73.0,70.1,68.0,93,86,75,30.04,29.95,17,4,19,0.23
2013-4-23,82.0,75.2,71.0,73.0,70.1,68.0,90,84,73,30.07,29.97,15,6,27,0.03
2013-4-24,81.0,73.6,69.0,73.0,69.2,66.0,93,86,73,30.09,29.99,14,6,23,0.63
2013-4-25,82.0,75.3,71.0,72.0,68.6,66.0,89,80,67,30.07,29.99,15,7,22,0.02
2013-4-26,82.0,75.2,71.0,69.0,66.9,65.0,85,76,59,30.06,29.98,19,8,25,0.00
2013-4-27,84.0,75.7,70.0,69.0,66.0,64.0,85,73,52,30.05,29.96,11,3,17,0.00
2013-4-28,82.0,75.3,71.0,71.0,68.2,65.0,86,79,67,30.04,29.93,9,3,13,0.00
2013-4-29,83.0,76.8,73.0,73.0,70.6,69.0,88,81,69,29.99,29.90,11,6,16,0.00
2013-4-30,84.0,76.4,71.0,72.0,69.8,68.0,90,81,64,30.03,29.92,7,1,12,0.00
2013-5-1,84.0,77.0,73.0,70.0,69.2,68.0,86,77,64,30.02,29.99,8,3,16,0.00
2013-5-5,75.0,73.7,73.0,71.0,68.6,67.0,90,84,77,29.90,29.79,19,12,26,0.14
2013-5-6,79.0,74.7,72.0,66.0,64.9,64.0,77,72,62,29.96,29.86,16,8,20,0.50
2013-5-7,80.0,76.2,72.0,69.0,67.2,65.0,80,73,67,29.97,29.91,10,3,13,0.00
2013-5-8,79.0,77.8,77.0,69.0,67.3,66.0,73,70,68,29.96,29.93,8,2,10,0.00
2013-5-9,82.0,76.3,72.0,71.0,68.7,67.0,87,78,69,30.07,29.96,13,5,15,0.00
2013-5-10,82.0,78.6,72.0,73.0,70.1,68.0,87,76,66,30.08,30.02,13,6,20,0.07
2013-5-11,81.0,76.3,72.0,69.0,65.5,-99.9,85,73,65,30.09,30.03,17,10,25,0.03
2013-5-12,78.0,74.9,70.0,70.0,69.1,68.0,93,82,74,30.11,30.02,14,7,22,0.12
2013-5-13,81.0,76.7,73.0,71.0,69.7,68.0,88,79,70,30.08,30.00,20,8,23,0.00
2013-5-14,82.0,80.8,78.0,72.0,71.7,71.0,78,74,71,30.09,30.05,17,10,28,0.00
2013-5-15,82.0,79.0,76.0,72.0,70.3,69.0,81,75,68,30.12,30.07,15,7,24,0.00
2013-5-16,80.0,78.7,78.0,69.0,68.7,68.0,74,72,70,30.06,30.05,11,10,19,0.00
2013-5-17,85.0,78.7,73.0,71.0,66.5,-99.9,80,71,58,30.07,29.99,16,7,22,0.00
2013-5-18,83.0,79.7,75.0,73.0,69.9,68.0,85,73,68,30.04,29.96,11,5,14,0.01
2013-5-19,78.0,73.3,71.0,72.0,68.9,67.0,90,86,69,29.94,29.91,9,4,15,0.57
2013-5-20,80.0,76.2,71.0,68.0,65.8,64.0,78,71,63,29.96,29.90,9,3,16,0.51
2013-5-21,81.0,77.8,76.0,69.0,67.3,65.0,75,70,65,29.99,29.91,8,3,12,0.00
2013-5-22,88.0,81.1,72.0,72.0,70.2,67.0,87,70,54,30.00,29.96,8,3,13,0.00
2013-5-23,85.0,82.6,81.0,74.0,72.6,71.0,76,72,67,30.01,29.94,10,7,17,0.00
2013-5-24,84.0,79.1,75.0,72.0,69.8,67.0,79,74,67,30.07,30.02,13,7,19,0.00
2013-5-25,82.0,79.6,77.0,72.0,70.4,69.0,78,74,70,30.04,30.01,14,9,25,0.01
2013-5-27,84.0,79.9,74.0,72.0,69.7,67.0,83,72,64,30.09,29.99,17,7,22,0.01
2013-5-28,84.0,79.3,74.0,73.0,71.3,70.0,88,77,67,30.07,30.03,16,6,23,0.01
2013-6-1,79.0,77.1,75.0,72.0,71.4,70.0,86,82,79,30.08,30.01,17,9,25,0.00
2013-6-2,82.0,78.2,74.0,74.0,71.7,70.0,91,81,72,30.09,30.04,19,10,27,0.05
2013-6-3,81.0,77.5,76.0,69.0,67.3,66.0,75,71,66,30.05,30.01,12,7,20,0.00
2013-6-4,82.0,77.4,76.0,70.0,68.7,68.0,78,75,66,30.02,29.99,16,10,28,0.00
2013-6-6,84.0,80.4,73.0,69.0,67.3,65.0,77,65,59,30.00,29.94,18,7,23,0.00
2013-6-7,81.0,78.8,77.0,69.0,68.2,67.0,76,70,63,29.97,29.96,14,7,26,0.00
2013-6-8,84.0,80.4,75.0,70.0,69.1,67.0,77,69,63,30.03,29.98,17,8,24,0.00
2013-6-9,76.0,74.5,73.0,69.0,68.1,67.0,82,80,77,30.09,30.06,6,-32,14,0.00
2013-6-10,82.0,76.3,73.0,71.0,68.7,67.0,83,78,67,30.08,29.99,9,2,14,0.00
2013-6-11,85.0,77.3,74.0,71.0,69.0,68.0,84,77,62,30.04,29.97,8,2,19,0.00
2013-6-12,83.0,77.0,73.0,72.0,69.2,66.0,85,77,66,30.10,30.00,10,3,16,0.00
2013-6-13,82.0,75.8,73.0,73.0,69.5,67.0,89,81,66,30.11,30.05,12,3,16,0.07
2013-6-14,82.0,75.3,70.0,72.0,69.1,67.0,93,82,68,30.10,30.00,11,3,20,0.49
2013-6-15,82.0,76.1,72.0,71.0,68.5,67.0,87,78,65,30.03,29.93,10,2,17,0.02
2013-6-16,84.0,76.7,72.0,71.0,68.7,67.0,85,77,64,30.03,29.93,10,2,18,0.02
2013-6-17,84.0,77.1,72.0,71.0,69.1,67.0,87,77,63,30.09,29.98,13,3,16,0.02
2013-6-18,85.0,77.2,72.0,72.0,69.6,66.0,87,78,65,30.08,30.01,9,2,17,0.02
2013-6-19,83.0,76.6,73.0,72.0,68.6,67.0,84,77,65,30.07,30.01,8,2,13,0.00